createdAt,value
2023-05-08T00:01:33.085Z,9.18
2023-05-08T00:04:00.315Z,10.60
2023-05-08T00:06:30.292Z,11.90
2023-05-08T00:08:57.468Z,10.73
2023-05-08T00:11:24.670Z,7.10
2023-05-08T00:13:51.819Z,8.27
2023-05-08T00:16:19.065Z,15.50
2023-05-08T00:18:46.927Z,12.60
2023-05-08T00:21:14.260Z,6.82
2023-05-08T00:23:41.644Z,8.05
2023-05-08T00:26:08.922Z,8.20
2023-05-08T00:28:36.021Z,10.98
2023-05-08T00:31:03.501Z,8.18
2023-05-08T00:33:30.590Z,5.53
2023-05-08T00:36:02.125Z,9.43
2023-05-08T00:38:36.217Z,5.22
2023-05-08T00:41:04.419Z,8.30
2023-05-08T00:43:31.543Z,8.68
2023-05-08T00:46:02.462Z,6.72
2023-05-08T00:48:33.828Z,6.93
2023-05-08T00:51:02.509Z,5.75
2023-05-08T00:53:33.133Z,6.45
2023-05-08T00:56:00.333Z,6.88
2023-05-08T00:58:28.585Z,7.43
2023-05-08T01:00:57.109Z,6.10
2023-05-08T01:03:25.616Z,7.43
2023-05-08T01:05:53.210Z,6.93
2023-05-08T01:08:20.421Z,5.28
2023-05-08T01:10:58.816Z,6.65
2023-05-08T01:14:10.477Z,6.60
2023-05-08T01:16:46.384Z,6.13
2023-05-08T01:19:31.823Z,8.55
2023-05-08T01:22:26.978Z,5.50
2023-05-08T01:25:22.947Z,6.65
2023-05-08T01:27:56.711Z,7.95
2023-05-08T01:31:00.935Z,7.18
2023-05-08T01:33:42.461Z,7.82
2023-05-08T01:36:48.041Z,6.20
2023-05-08T01:39:30.076Z,7.72
2023-05-08T01:42:09.245Z,8.65
2023-05-08T01:44:45.304Z,8.80
2023-05-08T01:47:13.887Z,9.55
2023-05-08T01:49:48.472Z,6.53
2023-05-08T01:52:37.723Z,7.78
2023-05-08T01:55:11.259Z,7.68
2023-05-08T01:57:44.127Z,7.45
2023-05-08T02:00:12.543Z,5.05
2023-05-08T02:02:40.900Z,6.30
2023-05-08T02:05:09.630Z,10.40
2023-05-08T02:07:39.985Z,8.05
2023-05-08T02:10:10.193Z,10.18
2023-05-08T02:12:39.039Z,6.05
2023-05-08T02:15:08.257Z,6.72
2023-05-08T02:17:38.396Z,5.85
2023-05-08T02:20:07.742Z,6.68
2023-05-08T02:22:35.796Z,7.15
2023-05-08T02:25:04.459Z,6.90
2023-05-08T02:27:32.032Z,8.13
2023-05-08T02:30:00.662Z,6.20
2023-05-08T02:32:29.887Z,6.70
2023-05-08T02:35:03.033Z,7.00
2023-05-08T02:37:32.066Z,8.10
2023-05-08T02:39:59.565Z,11.00
2023-05-08T02:42:26.979Z,6.60
2023-05-08T02:44:54.308Z,7.75
2023-05-08T02:47:29.937Z,5.03
2023-05-08T02:50:04.582Z,6.05
2023-05-08T02:52:46.020Z,7.82
2023-05-08T02:55:16.055Z,7.88
2023-05-08T02:57:46.012Z,8.77
2023-05-08T03:00:28.998Z,6.60
2023-05-08T03:03:28.597Z,9.55
2023-05-08T03:05:59.919Z,6.10
2023-05-08T03:08:32.928Z,6.82
2023-05-08T03:11:04.134Z,6.15
2023-05-08T03:13:34.482Z,9.13
2023-05-08T03:16:04.639Z,4.53
2023-05-08T03:18:37.122Z,9.23
2023-05-08T03:21:07.372Z,8.23
2023-05-08T03:23:36.840Z,7.10
2023-05-08T03:26:05.946Z,5.35
2023-05-08T03:28:35.658Z,9.43
2023-05-08T03:31:05.259Z,6.55
2023-05-08T03:33:33.186Z,8.70
2023-05-08T03:36:00.409Z,5.85
2023-05-08T03:38:27.756Z,6.82
2023-05-08T03:40:54.862Z,7.40
2023-05-08T03:43:23.087Z,6.70
2023-05-08T03:45:51.808Z,6.47
2023-05-08T03:48:20.211Z,11.63
2023-05-08T03:50:47.979Z,7.93
2023-05-08T03:53:15.399Z,5.78
2023-05-08T03:55:42.833Z,7.50
2023-05-08T03:58:19.594Z,5.57
2023-05-08T04:01:15.526Z,10.38
2023-05-08T04:04:03.808Z,6.57
2023-05-08T04:06:59.712Z,6.65
2023-05-08T04:10:09.438Z,5.47
2023-05-08T04:12:49.432Z,8.00
2023-05-08T04:15:23.447Z,8.43
2023-05-08T04:17:59.908Z,5.50
2023-05-08T04:20:29.467Z,7.20
2023-05-08T04:22:58.593Z,5.70
2023-05-08T04:25:26.961Z,7.13
2023-05-08T04:27:56.162Z,8.05
2023-05-08T04:30:24.409Z,7.13
2023-05-08T04:32:52.655Z,5.22
2023-05-08T04:35:20.316Z,5.55
2023-05-08T04:37:48.491Z,5.13
2023-05-08T04:40:16.722Z,7.22
2023-05-08T04:42:47.385Z,7.55
2023-05-08T04:45:16.743Z,5.60
2023-05-08T04:47:44.081Z,7.63
2023-05-08T04:50:12.256Z,8.23
2023-05-08T04:52:39.454Z,6.60
2023-05-08T04:55:07.681Z,6.22
2023-05-08T04:57:37.237Z,7.90
2023-05-08T05:00:06.132Z,5.53
2023-05-08T05:02:37.413Z,4.53
2023-05-08T05:05:06.061Z,5.35
2023-05-08T05:07:33.742Z,6.65
2023-05-08T05:10:01.268Z,6.20
2023-05-08T05:12:29.276Z,6.63
2023-05-08T05:14:56.402Z,5.85
2023-05-08T05:17:24.792Z,5.50
2023-05-08T05:19:53.516Z,6.75
2023-05-08T05:22:21.283Z,6.35
2023-05-08T05:24:48.645Z,7.10
2023-05-08T05:27:15.779Z,9.73
2023-05-08T05:29:43.058Z,7.55
2023-05-08T05:32:11.660Z,9.77
2023-05-08T05:34:38.902Z,11.55
2023-05-08T05:37:06.882Z,9.93
2023-05-08T05:39:34.120Z,10.23
2023-05-08T05:42:01.256Z,6.63
2023-05-08T05:44:29.113Z,8.40
2023-05-08T05:46:56.709Z,10.63
2023-05-08T05:49:24.025Z,8.35
2023-05-08T05:51:51.182Z,5.18
2023-05-08T05:54:18.462Z,7.60
2023-05-08T05:56:45.673Z,6.65
2023-05-08T05:59:12.786Z,6.78
2023-05-08T06:01:40.654Z,6.97
2023-05-08T06:04:08.016Z,7.65
2023-05-08T06:06:35.192Z,6.97
2023-05-08T06:09:02.291Z,8.18
2023-05-08T06:11:29.395Z,8.00
2023-05-08T06:13:56.657Z,9.63
2023-05-08T06:16:25.011Z,5.43
2023-05-08T06:18:52.287Z,6.88
2023-05-08T06:21:19.444Z,4.95
2023-05-08T06:23:46.730Z,7.78
2023-05-08T06:26:13.983Z,6.65
2023-05-08T06:28:41.090Z,8.23
2023-05-08T06:31:08.242Z,8.52
2023-05-08T06:33:35.438Z,6.82
2023-05-08T06:36:05.113Z,6.43
2023-05-08T06:38:32.469Z,8.20
2023-05-08T06:40:59.632Z,7.10
2023-05-08T06:43:26.782Z,7.43
2023-05-08T06:45:54.030Z,5.35
2023-05-08T06:48:21.217Z,5.57
2023-05-08T06:50:48.350Z,6.28
2023-05-08T06:53:15.454Z,5.40
2023-05-08T06:55:45.559Z,7.28
2023-05-08T06:58:12.716Z,6.40
2023-05-08T07:00:39.834Z,7.85
2023-05-08T07:03:07.126Z,6.28
2023-05-08T07:05:34.328Z,6.05
2023-05-08T07:08:01.532Z,8.35
2023-05-08T07:10:28.692Z,6.80
2023-05-08T07:12:55.944Z,9.55
2023-05-08T07:15:26.355Z,6.28
2023-05-08T07:17:54.292Z,8.93
2023-05-08T07:20:21.988Z,8.73
2023-05-08T07:22:49.237Z,7.93
2023-05-08T07:25:16.992Z,7.70
2023-05-08T07:27:44.283Z,8.07
2023-05-08T07:30:11.693Z,5.50
2023-05-08T07:32:39.620Z,5.18
2023-05-08T07:35:11.052Z,6.35
2023-05-08T07:37:39.997Z,5.22
2023-05-08T07:40:07.715Z,7.28
2023-05-08T07:42:52.909Z,5.20
2023-05-08T07:45:20.275Z,4.50
2023-05-08T07:47:56.232Z,5.72
2023-05-08T07:50:24.717Z,6.82
2023-05-08T07:52:52.487Z,6.22
2023-05-08T07:55:20.343Z,5.68
2023-05-08T07:57:47.481Z,7.57
2023-05-08T08:00:15.815Z,6.93
2023-05-08T08:02:44.787Z,5.13
2023-05-08T08:05:12.749Z,5.93
2023-05-08T08:07:40.500Z,8.18
2023-05-08T08:10:08.603Z,7.22
2023-05-08T08:12:36.040Z,9.02
2023-05-08T08:15:03.323Z,8.55
2023-05-08T08:17:31.221Z,5.35
2023-05-08T08:19:58.354Z,6.40
2023-05-08T08:22:26.770Z,5.45
2023-05-08T08:24:56.141Z,6.25
2023-05-08T08:27:23.542Z,5.93
2023-05-08T08:29:54.501Z,5.35
2023-05-08T08:32:28.834Z,6.38
2023-05-08T08:34:56.568Z,6.00
2023-05-08T08:37:24.351Z,7.65
2023-05-08T08:39:51.527Z,5.65
2023-05-08T08:42:18.710Z,5.10
2023-05-08T08:44:46.117Z,5.97
2023-05-08T08:47:16.798Z,5.30
2023-05-08T08:49:49.381Z,7.07
2023-05-08T08:52:40.539Z,5.65
2023-05-08T08:55:12.815Z,5.07
2023-05-08T09:00:13.088Z,5.57
2023-05-08T09:02:40.303Z,5.95
2023-05-08T09:05:08.185Z,6.82
2023-05-08T09:07:35.880Z,6.25
2023-05-08T09:10:07.428Z,6.25
2023-05-08T09:12:34.641Z,7.50
2023-05-08T09:15:01.801Z,5.18
2023-05-08T09:17:29.089Z,8.52
2023-05-08T09:19:56.634Z,5.05
2023-05-08T09:22:24.920Z,4.20
2023-05-08T09:24:59.695Z,5.90
2023-05-08T09:27:28.633Z,5.68
2023-05-08T09:30:14.317Z,5.93
2023-05-08T09:32:44.411Z,4.03
2023-05-08T09:35:13.253Z,5.93
2023-05-08T09:37:46.527Z,4.93
2023-05-08T09:40:19.346Z,5.47
2023-05-08T09:42:48.190Z,4.68
2023-05-08T09:45:30.008Z,8.38
2023-05-08T09:47:57.707Z,6.65
2023-05-08T09:50:26.000Z,8.57
2023-05-08T09:52:53.359Z,6.97
2023-05-08T09:55:20.610Z,8.23
2023-05-08T09:57:58.231Z,4.88
2023-05-08T10:00:27.525Z,5.70
2023-05-08T10:02:56.121Z,2.30
2023-05-08T10:05:32.241Z,5.63
2023-05-08T10:08:17.845Z,4.63
2023-05-08T10:10:45.159Z,5.22
2023-05-08T10:13:12.351Z,6.32
2023-05-08T10:15:42.990Z,3.65
2023-05-08T10:18:12.317Z,3.28
2023-05-08T10:20:42.463Z,6.55
2023-05-08T10:23:14.580Z,6.10
2023-05-08T10:25:57.785Z,8.10
2023-05-08T10:28:36.396Z,3.33
2023-05-08T10:31:07.050Z,5.28
2023-05-08T10:33:35.683Z,4.85
2023-05-08T10:36:02.898Z,4.18
2023-05-08T10:38:31.380Z,6.35
2023-05-08T10:41:01.496Z,4.63
2023-05-08T10:43:31.124Z,4.03
2023-05-08T10:46:02.368Z,7.40
2023-05-08T10:48:47.206Z,6.30
2023-05-08T10:51:27.510Z,5.93
2023-05-08T10:54:01.718Z,3.45
2023-05-08T10:56:29.378Z,4.47
2023-05-08T10:59:00.084Z,5.63
2023-05-08T11:01:27.541Z,3.28
2023-05-08T11:03:57.934Z,4.13
2023-05-08T11:06:52.951Z,4.85
2023-05-08T11:09:45.660Z,3.33
2023-05-08T11:15:06.906Z,4.90
2023-05-08T11:17:34.650Z,5.20
2023-05-08T11:20:04.201Z,5.88
2023-05-08T11:22:32.927Z,5.25
2023-05-08T11:25:09.824Z,3.60
2023-05-08T11:28:18.852Z,5.22
2023-05-08T11:30:46.594Z,3.85
2023-05-08T11:33:14.715Z,3.05
2023-05-08T11:35:43.248Z,3.13
2023-05-08T11:38:20.785Z,3.63
2023-05-08T11:40:58.511Z,6.38
2023-05-08T11:43:37.665Z,2.47
2023-05-08T11:46:13.495Z,2.80
2023-05-08T11:48:41.074Z,3.05
2023-05-08T11:51:08.625Z,6.25
2023-05-08T11:53:37.588Z,6.55
2023-05-08T11:56:05.377Z,3.30
2023-05-08T11:58:32.538Z,3.67
2023-05-08T12:00:59.751Z,4.63
2023-05-08T12:03:27.151Z,3.13
2023-05-08T12:05:59.614Z,3.17
2023-05-08T12:08:27.124Z,3.83
2023-05-08T12:10:56.889Z,5.78
2023-05-08T12:13:26.738Z,4.05
2023-05-08T12:15:55.851Z,4.43
2023-05-08T12:18:24.926Z,4.28
2023-05-08T12:20:58.483Z,3.10
2023-05-08T12:23:26.833Z,3.30
2023-05-08T12:25:55.351Z,2.63
2023-05-08T12:28:23.007Z,4.13
2023-05-08T12:30:50.591Z,3.25
2023-05-08T12:33:19.259Z,1.58
2023-05-08T12:35:46.722Z,1.60
2023-05-08T12:38:13.912Z,1.75
2023-05-08T12:40:46.010Z,1.98
2023-05-08T12:43:13.311Z,1.55
2023-05-08T12:45:42.920Z,0.80
2023-05-08T12:48:17.499Z,1.50
2023-05-08T12:50:46.137Z,3.13
2023-05-08T12:53:22.784Z,1.55
2023-05-08T12:55:58.106Z,2.67
2023-05-08T12:58:33.100Z,1.48
2023-05-08T13:01:13.373Z,1.60
2023-05-08T13:03:41.415Z,2.45
2023-05-08T13:06:20.769Z,3.38
2023-05-08T13:08:57.060Z,2.08
2023-05-08T13:11:31.792Z,1.88
2023-05-08T13:13:59.055Z,2.13
2023-05-08T13:16:26.410Z,3.30
2023-05-08T13:18:53.684Z,1.00
2023-05-08T13:21:20.903Z,2.15
2023-05-08T13:23:47.959Z,1.55
2023-05-08T13:26:15.110Z,1.95
2023-05-08T13:28:42.290Z,3.45
2023-05-08T13:31:09.377Z,2.42
2023-05-08T13:33:38.311Z,1.10
2023-05-08T13:36:05.564Z,1.25
2023-05-08T13:38:32.731Z,1.55
2023-05-08T13:41:00.004Z,1.95
2023-05-08T13:43:27.076Z,2.58
2023-05-08T13:45:54.250Z,2.13
2023-05-08T13:48:21.453Z,2.15
2023-05-08T13:50:48.589Z,2.53
2023-05-08T13:53:15.693Z,2.38
2023-05-08T13:55:42.839Z,5.13
2023-05-08T13:58:09.974Z,3.17
2023-05-08T14:00:37.191Z,3.17
2023-05-08T14:03:04.537Z,1.48
2023-05-08T14:05:31.709Z,4.93
2023-05-08T14:07:58.955Z,2.00
2023-05-08T14:10:26.274Z,2.42
2023-05-08T14:12:53.500Z,2.47
2023-05-08T14:15:22.182Z,3.20
2023-05-08T14:17:50.687Z,2.15
2023-05-08T14:20:17.941Z,3.60
2023-05-08T14:25:12.842Z,2.65
2023-05-08T14:27:40.167Z,2.47
2023-05-08T14:30:08.071Z,0.85
2023-05-08T14:32:35.302Z,1.42
2023-05-08T14:35:02.424Z,1.92
2023-05-08T14:37:29.692Z,2.03
2023-05-08T14:39:57.858Z,1.95
2023-05-08T14:42:25.193Z,1.90
2023-05-08T14:44:53.192Z,2.05
2023-05-08T14:47:20.392Z,1.10
2023-05-08T14:49:47.501Z,1.35
2023-05-08T14:52:14.651Z,1.27
2023-05-08T14:54:42.003Z,3.38
2023-05-08T14:57:09.464Z,2.30
2023-05-08T14:59:36.581Z,1.98
2023-05-08T15:02:04.156Z,1.67
2023-05-08T15:04:31.314Z,1.27
2023-05-08T15:06:58.414Z,2.25
2023-05-08T15:09:25.563Z,2.28
2023-05-08T15:11:52.690Z,3.28
2023-05-08T15:14:19.967Z,3.33
2023-05-08T15:16:47.367Z,1.90
2023-05-08T15:19:14.572Z,3.50
2023-05-08T15:21:41.710Z,2.20
2023-05-08T15:24:09.363Z,1.63
2023-05-08T15:26:36.812Z,1.63
2023-05-08T15:29:04.067Z,4.43
2023-05-08T15:31:31.381Z,8.88
2023-05-08T15:33:58.497Z,4.22
2023-05-08T15:36:28.236Z,4.90
2023-05-08T15:38:55.651Z,1.60
2023-05-08T15:41:22.803Z,3.00
2023-05-08T15:43:49.971Z,2.83
2023-05-08T15:46:17.222Z,2.88
2023-05-08T15:48:44.399Z,3.08
2023-05-08T15:51:11.749Z,2.88
2023-05-08T15:53:38.799Z,2.00
2023-05-08T15:56:06.505Z,1.83
2023-05-08T15:58:34.664Z,2.45
2023-05-08T16:01:01.880Z,1.50
2023-05-08T16:03:29.074Z,4.50
2023-05-08T16:05:56.525Z,4.00
2023-05-08T16:08:24.167Z,2.85
2023-05-08T16:10:54.167Z,5.40
2023-05-08T16:13:21.458Z,4.75
2023-05-08T16:15:48.746Z,6.10
2023-05-08T16:18:15.925Z,2.50
2023-05-08T16:20:43.241Z,1.88
2023-05-08T16:23:10.728Z,3.03
2023-05-08T16:25:37.920Z,4.78
2023-05-08T16:28:05.051Z,2.92
2023-05-08T16:30:32.271Z,4.25
2023-05-08T16:32:59.454Z,4.68
2023-05-08T16:35:26.723Z,4.18
2023-05-08T16:37:53.966Z,4.47
2023-05-08T16:40:21.335Z,3.78
2023-05-08T16:42:48.511Z,5.10
2023-05-08T16:45:15.800Z,5.75
2023-05-08T16:47:43.246Z,7.47
2023-05-08T16:50:10.850Z,3.13
2023-05-08T16:52:38.496Z,3.38
2023-05-08T16:55:06.291Z,7.45
2023-05-08T16:57:33.505Z,5.25
2023-05-08T17:00:01.355Z,8.80
2023-05-08T17:02:28.907Z,18.27
2023-05-08T17:04:56.094Z,10.52
2023-05-08T17:07:24.048Z,15.93
2023-05-08T17:09:56.460Z,12.90
2023-05-08T17:12:24.581Z,7.63
2023-05-08T17:14:51.778Z,4.07
2023-05-08T17:17:19.100Z,7.05
2023-05-08T17:19:46.261Z,8.90
2023-05-08T17:22:13.451Z,30.45
2023-05-08T17:24:40.595Z,15.07
2023-05-08T17:27:08.579Z,24.40
2023-05-08T17:29:36.083Z,26.73
2023-05-08T17:32:04.936Z,29.73
2023-05-08T17:34:32.342Z,18.77
2023-05-08T17:36:59.634Z,30.20
2023-05-08T17:39:26.786Z,18.58
2023-05-08T17:41:55.506Z,29.33
2023-05-08T17:44:22.913Z,38.63
2023-05-08T17:46:50.079Z,30.35
2023-05-08T17:49:19.281Z,33.50
2023-05-08T17:51:46.914Z,28.85
2023-05-08T17:54:14.122Z,15.50
2023-05-08T17:56:41.387Z,6.70
2023-05-08T17:59:08.574Z,5.07
2023-05-08T18:01:35.856Z,5.88
2023-05-08T18:04:03.090Z,5.45
2023-05-08T18:06:30.367Z,3.05
2023-05-08T18:08:57.536Z,5.13
2023-05-08T18:11:26.083Z,3.45
2023-05-08T18:13:53.918Z,2.67
2023-05-08T18:16:22.584Z,3.08
2023-05-08T18:18:50.165Z,3.13
2023-05-08T18:21:17.429Z,2.90
2023-05-08T18:23:44.691Z,4.72
2023-05-08T18:26:16.033Z,2.88
2023-05-08T18:28:44.336Z,3.83
2023-05-08T18:31:12.286Z,3.47
2023-05-08T18:33:39.685Z,2.45
2023-05-08T18:36:07.321Z,2.97
2023-05-08T18:38:35.763Z,2.10
2023-05-08T18:41:04.131Z,2.45
2023-05-08T18:43:31.355Z,3.72
2023-05-08T18:46:00.532Z,2.33
2023-05-08T18:48:27.938Z,2.72
2023-05-08T18:50:58.860Z,8.55
2023-05-08T18:53:26.093Z,2.22
2023-05-08T18:55:53.252Z,2.88
2023-05-08T18:58:20.911Z,2.80
2023-05-08T19:00:48.151Z,2.67
2023-05-08T19:03:15.389Z,1.65
2023-05-08T19:05:42.719Z,4.05
2023-05-08T19:08:10.002Z,2.00
2023-05-08T19:10:37.138Z,2.47
2023-05-08T19:13:04.336Z,1.95
2023-05-08T19:15:31.453Z,1.38
2023-05-08T19:17:58.687Z,3.58
2023-05-08T19:20:25.908Z,3.10
2023-05-08T19:22:53.241Z,2.35
2023-05-08T19:25:20.811Z,5.22
2023-05-08T19:27:48.519Z,4.50
2023-05-08T19:30:15.948Z,3.38
2023-05-08T19:32:43.355Z,3.25
2023-05-08T19:35:10.520Z,3.30
2023-05-08T19:37:38.104Z,3.70
2023-05-08T19:40:06.450Z,2.97
2023-05-08T19:42:34.353Z,2.70
2023-05-08T19:45:01.538Z,2.15
2023-05-08T19:47:28.755Z,2.72
2023-05-08T19:49:55.998Z,1.35
2023-05-08T19:52:23.131Z,2.05
2023-05-08T19:54:50.436Z,2.67
2023-05-08T19:57:17.661Z,2.17
2023-05-08T19:59:44.794Z,1.35
2023-05-08T20:02:11.963Z,1.90
2023-05-08T20:04:54.592Z,2.45
2023-05-08T20:07:26.438Z,2.58
2023-05-08T20:09:53.627Z,1.00
2023-05-08T20:12:20.900Z,1.52
2023-05-08T20:14:48.146Z,3.33
2023-05-08T20:17:16.630Z,2.28
2023-05-08T20:19:43.786Z,1.67
2023-05-08T20:22:11.132Z,3.45
2023-05-08T20:24:38.269Z,1.95
2023-05-08T20:27:05.457Z,2.28
2023-05-08T20:29:32.667Z,1.75
2023-05-08T20:31:59.931Z,2.17
2023-05-08T20:34:27.166Z,2.80
2023-05-08T20:36:54.286Z,1.85
2023-05-08T20:39:21.377Z,2.92
2023-05-08T20:41:48.586Z,1.95
2023-05-08T20:44:17.760Z,3.20
2023-05-08T20:46:45.380Z,4.55
2023-05-08T20:49:13.386Z,3.13
2023-05-08T20:51:40.617Z,2.78
2023-05-08T20:54:07.728Z,5.75
2023-05-08T20:56:35.878Z,2.58
2023-05-08T20:59:03.105Z,3.38
2023-05-08T21:01:30.412Z,6.70
2023-05-08T21:03:57.649Z,3.30
2023-05-08T21:06:25.714Z,5.10
2023-05-08T21:08:52.942Z,3.80
2023-05-08T21:11:20.113Z,5.30
2023-05-08T21:13:47.312Z,4.00
2023-05-08T21:16:14.724Z,3.63
2023-05-08T21:18:42.012Z,3.78
2023-05-08T21:21:17.142Z,5.82
2023-05-08T21:23:44.305Z,4.03
2023-05-08T21:26:12.301Z,3.17
2023-05-08T21:28:39.472Z,5.57
2023-05-08T21:31:06.914Z,5.93
2023-05-08T21:33:34.452Z,3.70
2023-05-08T21:36:01.799Z,4.95
2023-05-08T21:38:29.189Z,5.95
2023-05-08T21:40:56.462Z,3.72
2023-05-08T21:43:23.639Z,4.30
2023-05-08T21:45:50.899Z,3.67
2023-05-08T21:48:18.100Z,4.95
2023-05-08T21:50:45.271Z,4.60
2023-05-08T21:53:12.549Z,3.17
2023-05-08T21:55:39.806Z,5.32
2023-05-08T21:58:06.974Z,3.03
2023-05-08T22:00:34.597Z,4.35
2023-05-08T22:03:01.911Z,3.58
2023-05-08T22:05:29.256Z,4.15
2023-05-08T22:07:56.443Z,4.07
2023-05-08T22:10:25.574Z,3.92
2023-05-08T22:12:52.777Z,4.45
2023-05-08T22:15:29.834Z,3.13
2023-05-08T22:17:58.054Z,5.47
2023-05-08T22:20:26.164Z,3.85
2023-05-08T22:22:53.423Z,4.40
2023-05-08T22:25:22.173Z,2.92
2023-05-08T22:27:49.357Z,4.22
2023-05-08T22:30:16.580Z,3.97
2023-05-08T22:32:52.379Z,2.40
2023-05-08T22:35:21.845Z,5.88
2023-05-08T22:37:49.181Z,3.92
2023-05-08T22:40:16.537Z,3.13
2023-05-08T22:42:44.422Z,4.10
2023-05-08T22:45:12.984Z,2.70
2023-05-08T22:47:41.092Z,2.92
2023-05-08T22:50:09.327Z,2.72
2023-05-08T22:52:36.707Z,3.33
2023-05-08T22:55:04.915Z,2.90
2023-05-08T22:57:33.014Z,3.15
2023-05-08T23:00:00.513Z,1.90
2023-05-08T23:02:35.614Z,3.15
2023-05-08T23:05:02.907Z,2.75
2023-05-08T23:07:30.854Z,3.40
2023-05-08T23:09:58.060Z,1.63
2023-05-08T23:12:25.371Z,1.50
2023-05-08T23:14:53.042Z,4.45
2023-05-08T23:17:20.254Z,1.40
2023-05-08T23:19:47.325Z,1.23
2023-05-08T23:22:14.514Z,1.23
2023-05-08T23:24:41.784Z,2.08
2023-05-08T23:27:09.521Z,1.42
2023-05-08T23:29:36.685Z,0.73
2023-05-08T23:32:03.862Z,2.50
2023-05-08T23:34:30.952Z,0.68
2023-05-08T23:36:58.196Z,0.45
2023-05-08T23:39:25.675Z,1.20
2023-05-08T23:41:53.159Z,1.35
2023-05-08T23:44:20.848Z,0.65
2023-05-08T23:46:48.095Z,0.77
2023-05-08T23:49:15.504Z,1.90
2023-05-08T23:51:42.588Z,0.73
2023-05-08T23:54:09.753Z,1.02
2023-05-08T23:56:37.096Z,1.35
2023-05-08T23:59:04.319Z,1.95
